9JMJB HKJK-HECA
Flight info
| Callsign | 9JMJB |
|---|---|
| Flight time | N/A |
| Altitude | 41000 |
| Route | ETORU1A LOTAS UM308 KONET G650 ASM DCT PSD P751 LXR A727 CVO |
| Aircraft | C550/L-SDFGHRWY/S |
Departure
| Time | 2026-04-30 18:11 |
|---|---|
| Airport | Jomo Kenyatta International Airport (HKJK) |
Arrival
| Time | N/A |
|---|---|
| Airport | Cairo International Airport (HECA) |
| Time | Latitude | Longitude | Altitude | Speed | Heading |
|---|---|---|---|---|---|
| 2026-04-30 17:48 | -1.32892 | 36.93144 | 5302 ft | 0 kts | 52° |
| 2026-04-30 18:04 | -1.32890 | 36.93147 | 5302 ft | 1 kts | 52° |
| 2026-04-30 18:05 | -1.32711 | 36.93046 | 5304 ft | 8 kts | 253° |
| 2026-04-30 18:06 | -1.32625 | 36.92900 | 5309 ft | 3 kts | 325° |
| 2026-04-30 18:07 | -1.32417 | 36.92667 | 5313 ft | 11 kts | 235° |
| 2026-04-30 18:08 | -1.32611 | 36.92401 | 5313 ft | 21 kts | 233° |
| 2026-04-30 18:09 | -1.32940 | 36.91955 | 5317 ft | 15 kts | 232° |
| 2026-04-30 18:10 | -1.32885 | 36.91739 | 5322 ft | 9 kts | 326° |
| 2026-04-30 18:11 | -1.32385 | 36.92153 | 5313 ft | 110 kts | 53° |
| 2026-04-30 18:11 | -1.30323 | 36.94939 | 6665 ft | 194 kts | 53° |
| 2026-04-30 18:12 | -1.28201 | 36.97796 | 9854 ft | 168 kts | 53° |
| 2026-04-30 18:13 | -1.26398 | 36.99278 | 11413 ft | 177 kts | 19° |
| 2026-04-30 18:13 | -1.23259 | 36.98867 | 13465 ft | 182 kts | 326° |
| 2026-04-30 18:14 | -1.20821 | 36.97228 | 15156 ft | 187 kts | 340° |
| 2026-04-30 18:15 | -1.17028 | 36.96187 | 17209 ft | 194 kts | 346° |
| 2026-04-30 18:15 | -1.13100 | 36.95190 | 19094 ft | 196 kts | 346° |
| 2026-04-30 18:16 | -1.10439 | 36.94516 | 19887 ft | 202 kts | 346° |
| 2026-04-30 18:16 | -1.07680 | 36.93816 | 20705 ft | 206 kts | 346° |
| 2026-04-30 18:17 | -1.06292 | 36.93464 | 21121 ft | 207 kts | 346° |
| 2026-04-30 18:17 | -1.04899 | 36.93110 | 21522 ft | 208 kts | 346° |
| 2026-04-30 18:17 | -1.02072 | 36.92393 | 22297 ft | 211 kts | 346° |
| 2026-04-30 18:18 | -1.00648 | 36.92032 | 22674 ft | 212 kts | 346° |
| 2026-04-30 18:18 | -0.99210 | 36.91667 | 23046 ft | 214 kts | 346° |
| 2026-04-30 18:18 | -0.97781 | 36.91305 | 23406 ft | 215 kts | 346° |
| 2026-04-30 18:18 | -0.96324 | 36.90935 | 23764 ft | 216 kts | 346° |
| 2026-04-30 18:19 | -0.94866 | 36.90566 | 24112 ft | 218 kts | 346° |
| 2026-04-30 18:19 | -0.93410 | 36.90196 | 24452 ft | 219 kts | 346° |
| 2026-04-30 18:19 | -0.91917 | 36.89817 | 24792 ft | 220 kts | 346° |
| 2026-04-30 18:19 | -0.90446 | 36.89444 | 25118 ft | 221 kts | 346° |
| 2026-04-30 18:20 | -0.88953 | 36.89066 | 25441 ft | 223 kts | 346° |
| 2026-04-30 18:20 | -0.87445 | 36.88683 | 25759 ft | 224 kts | 346° |
| 2026-04-30 18:20 | -0.85948 | 36.88303 | 26068 ft | 225 kts | 346° |
| 2026-04-30 18:20 | -0.84430 | 36.87918 | 26373 ft | 226 kts | 346° |
| 2026-04-30 18:21 | -0.82906 | 36.87532 | 26672 ft | 227 kts | 346° |
| 2026-04-30 18:21 | -0.81376 | 36.87144 | 26965 ft | 229 kts | 346° |
| 2026-04-30 18:21 | -0.79834 | 36.86753 | 27252 ft | 230 kts | 346° |
| 2026-04-30 18:21 | -0.78280 | 36.86359 | 27536 ft | 231 kts | 346° |
| 2026-04-30 18:22 | -0.76720 | 36.85963 | 27814 ft | 232 kts | 346° |
| 2026-04-30 18:22 | -0.73599 | 36.85172 | 28350 ft | 234 kts | 346° |
| 2026-04-30 18:22 | -0.72022 | 36.84772 | 28612 ft | 235 kts | 346° |
| 2026-04-30 18:23 | -0.70444 | 36.84372 | 28868 ft | 236 kts | 346° |
| 2026-04-30 18:23 | -0.68851 | 36.83968 | 29120 ft | 237 kts | 346° |
| 2026-04-30 18:23 | -0.67241 | 36.83559 | 29369 ft | 238 kts | 346° |
| 2026-04-30 18:23 | -0.65650 | 36.83156 | 29610 ft | 239 kts | 346° |
| 2026-04-30 18:24 | -0.62398 | 36.82332 | 30085 ft | 241 kts | 346° |
| 2026-04-30 18:24 | -0.60786 | 36.81923 | 30312 ft | 242 kts | 346° |
| 2026-04-30 18:24 | -0.59155 | 36.81509 | 30537 ft | 243 kts | 346° |
| 2026-04-30 18:25 | -0.57509 | 36.81091 | 30759 ft | 244 kts | 346° |
| 2026-04-30 18:25 | -0.54203 | 36.80253 | 31190 ft | 246 kts | 346° |
| 2026-04-30 18:25 | -0.52550 | 36.79834 | 31399 ft | 247 kts | 346° |
| 2026-04-30 18:26 | -0.49218 | 36.78989 | 31805 ft | 249 kts | 346° |
| 2026-04-30 18:26 | -0.47550 | 36.78566 | 32002 ft | 250 kts | 346° |
| 2026-04-30 18:26 | -0.45869 | 36.78140 | 32195 ft | 251 kts | 346° |
| 2026-04-30 18:27 | -0.42483 | 36.77281 | 32573 ft | 252 kts | 346° |
| 2026-04-30 18:27 | -0.40781 | 36.76850 | 32757 ft | 253 kts | 346° |
| 2026-04-30 18:28 | -0.37370 | 36.75985 | 33113 ft | 255 kts | 346° |
| 2026-04-30 18:28 | -0.35639 | 36.75545 | 33288 ft | 256 kts | 346° |
| 2026-04-30 18:28 | -0.32186 | 36.74670 | 33625 ft | 257 kts | 346° |
| 2026-04-30 18:29 | -0.30470 | 36.74235 | 33788 ft | 258 kts | 346° |
| 2026-04-30 18:29 | -0.25232 | 36.72906 | 34263 ft | 260 kts | 346° |
| 2026-04-30 18:30 | -0.21739 | 36.72021 | 34564 ft | 261 kts | 346° |
| 2026-04-30 18:30 | -0.18217 | 36.71128 | 34854 ft | 263 kts | 346° |
| 2026-04-30 18:31 | -0.16427 | 36.70674 | 34997 ft | 264 kts | 346° |
| 2026-04-30 18:31 | -0.12889 | 36.69776 | 35269 ft | 265 kts | 346° |
| 2026-04-30 18:32 | -0.09309 | 36.68869 | 35533 ft | 266 kts | 346° |
| 2026-04-30 18:32 | -0.07536 | 36.68419 | 35659 ft | 267 kts | 346° |
| 2026-04-30 18:32 | -0.03877 | 36.67708 | 35908 ft | 268 kts | 352° |
| 2026-04-30 18:33 | -0.02050 | 36.67444 | 36028 ft | 269 kts | 352° |
| 2026-04-30 18:33 | 0.01643 | 36.66927 | 36262 ft | 270 kts | 352° |
| 2026-04-30 18:33 | 0.03506 | 36.66670 | 36374 ft | 270 kts | 352° |
| 2026-04-30 18:34 | 0.05368 | 36.66413 | 36483 ft | 271 kts | 352° |
| 2026-04-30 18:34 | 0.09089 | 36.65900 | 36695 ft | 272 kts | 352° |
| 2026-04-30 18:34 | 0.10977 | 36.65641 | 36799 ft | 273 kts | 352° |
| 2026-04-30 18:35 | 0.12854 | 36.65382 | 36900 ft | 274 kts | 352° |
| 2026-04-30 18:35 | 0.14750 | 36.65121 | 37000 ft | 274 kts | 352° |
| 2026-04-30 18:35 | 0.16619 | 36.64864 | 37096 ft | 275 kts | 352° |
| 2026-04-30 18:36 | 0.20420 | 36.64341 | 37284 ft | 276 kts | 352° |
| 2026-04-30 18:36 | 0.22301 | 36.64082 | 37374 ft | 277 kts | 352° |
| 2026-04-30 18:36 | 0.26119 | 36.63555 | 37551 ft | 278 kts | 352° |
| 2026-04-30 18:37 | 0.28037 | 36.63291 | 37637 ft | 278 kts | 352° |
| 2026-04-30 18:37 | 0.29955 | 36.63028 | 37720 ft | 279 kts | 352° |
| 2026-04-30 18:37 | 0.31848 | 36.62767 | 37801 ft | 279 kts | 352° |
| 2026-04-30 18:37 | 0.33771 | 36.62502 | 37881 ft | 280 kts | 352° |
| 2026-04-30 18:38 | 0.35697 | 36.62237 | 37960 ft | 280 kts | 352° |
| 2026-04-30 18:38 | 0.37625 | 36.61971 | 38037 ft | 281 kts | 352° |
| 2026-04-30 18:38 | 0.39562 | 36.61705 | 38112 ft | 281 kts | 352° |
| 2026-04-30 18:38 | 0.41506 | 36.61437 | 38187 ft | 282 kts | 352° |
| 2026-04-30 18:39 | 0.43425 | 36.61173 | 38258 ft | 282 kts | 352° |
| 2026-04-30 18:39 | 0.45365 | 36.60905 | 38329 ft | 283 kts | 352° |
| 2026-04-30 18:39 | 0.47309 | 36.60638 | 38398 ft | 283 kts | 352° |
| 2026-04-30 18:39 | 0.49269 | 36.60368 | 38466 ft | 284 kts | 352° |
| 2026-04-30 18:40 | 0.51209 | 36.60101 | 38532 ft | 284 kts | 352° |
| 2026-04-30 18:40 | 0.53156 | 36.59833 | 38597 ft | 284 kts | 352° |
| 2026-04-30 18:40 | 0.55115 | 36.59563 | 38661 ft | 285 kts | 352° |
| 2026-04-30 18:40 | 0.57091 | 36.59291 | 38724 ft | 285 kts | 352° |
| 2026-04-30 18:41 | 0.59052 | 36.59021 | 38785 ft | 286 kts | 352° |
| 2026-04-30 18:41 | 0.61002 | 36.58752 | 38845 ft | 286 kts | 352° |
| 2026-04-30 18:41 | 0.62964 | 36.58482 | 38903 ft | 286 kts | 352° |
| 2026-04-30 18:41 | 0.64947 | 36.58209 | 38960 ft | 287 kts | 352° |
| 2026-04-30 18:42 | 0.66911 | 36.57938 | 39016 ft | 287 kts | 352° |
| 2026-04-30 18:42 | 0.70860 | 36.57394 | 39123 ft | 288 kts | 352° |
| 2026-04-30 18:42 | 0.72850 | 36.57120 | 39175 ft | 288 kts | 352° |
| 2026-04-30 18:45 | 0.92742 | 36.54381 | 39632 ft | 291 kts | 352° |
| 2026-04-30 18:45 | 0.94759 | 36.54103 | 39673 ft | 292 kts | 352° |
| 2026-04-30 18:45 | 0.96756 | 36.53828 | 39712 ft | 292 kts | 352° |
| 2026-04-30 18:46 | 0.98758 | 36.53586 | 39748 ft | 292 kts | 357° |
| 2026-04-30 18:46 | 1.00791 | 36.53702 | 39779 ft | 292 kts | 10° |
| 2026-04-30 18:46 | 1.02745 | 36.54216 | 39810 ft | 292 kts | 18° |
| 2026-04-30 18:46 | 1.04669 | 36.54836 | 39845 ft | 293 kts | 17° |
| 2026-04-30 18:47 | 1.06623 | 36.55435 | 39881 ft | 293 kts | 17° |
| 2026-04-30 18:47 | 1.08560 | 36.56014 | 39916 ft | 293 kts | 16° |
| 2026-04-30 18:47 | 1.10525 | 36.56596 | 39951 ft | 293 kts | 16° |
| 2026-04-30 18:47 | 1.12464 | 36.57168 | 39984 ft | 294 kts | 16° |
| 2026-04-30 18:48 | 1.14418 | 36.57744 | 40015 ft | 294 kts | 16° |
| 2026-04-30 18:48 | 1.16378 | 36.58321 | 40047 ft | 294 kts | 16° |
| 2026-04-30 18:48 | 1.18331 | 36.58895 | 40077 ft | 294 kts | 16° |
| 2026-04-30 18:48 | 1.20304 | 36.59476 | 40108 ft | 294 kts | 16° |
| 2026-04-30 18:49 | 1.22246 | 36.60048 | 40137 ft | 295 kts | 16° |
| 2026-04-30 18:49 | 1.24214 | 36.60627 | 40166 ft | 295 kts | 16° |
| 2026-04-30 18:49 | 1.26166 | 36.61201 | 40194 ft | 295 kts | 16° |
| 2026-04-30 18:49 | 1.28144 | 36.61783 | 40222 ft | 295 kts | 16° |
| 2026-04-30 18:50 | 1.30089 | 36.62355 | 40248 ft | 295 kts | 16° |
| 2026-04-30 18:50 | 1.32061 | 36.62936 | 40274 ft | 295 kts | 16° |
| 2026-04-30 18:50 | 1.34041 | 36.63518 | 40300 ft | 296 kts | 16° |
| 2026-04-30 18:50 | 1.35993 | 36.64093 | 40325 ft | 296 kts | 16° |
| 2026-04-30 18:51 | 1.37951 | 36.64669 | 40349 ft | 296 kts | 16° |
| 2026-04-30 18:51 | 1.39934 | 36.65252 | 40374 ft | 296 kts | 16° |
| 2026-04-30 18:51 | 1.41891 | 36.65828 | 40397 ft | 296 kts | 16° |
| 2026-04-30 18:51 | 1.43877 | 36.66413 | 40420 ft | 296 kts | 16° |
| 2026-04-30 18:52 | 1.45853 | 36.66994 | 40443 ft | 297 kts | 16° |
| 2026-04-30 18:52 | 1.47831 | 36.67577 | 40465 ft | 297 kts | 16° |
| 2026-04-30 18:52 | 1.49791 | 36.68153 | 40486 ft | 297 kts | 16° |
| 2026-04-30 18:52 | 1.51758 | 36.68733 | 40507 ft | 297 kts | 16° |
| 2026-04-30 18:53 | 1.53740 | 36.69316 | 40528 ft | 297 kts | 16° |
| 2026-04-30 18:53 | 1.55727 | 36.69900 | 40548 ft | 297 kts | 16° |
| 2026-04-30 18:53 | 1.57708 | 36.70484 | 40567 ft | 297 kts | 16° |
| 2026-04-30 18:53 | 1.59664 | 36.71059 | 40587 ft | 298 kts | 16° |
| 2026-04-30 18:54 | 1.61656 | 36.71646 | 40605 ft | 298 kts | 16° |
| 2026-04-30 18:54 | 1.63639 | 36.72229 | 40624 ft | 298 kts | 16° |
| 2026-04-30 18:54 | 1.65619 | 36.72812 | 40642 ft | 298 kts | 16° |
| 2026-04-30 18:54 | 1.67596 | 36.73394 | 40660 ft | 298 kts | 16° |
| 2026-04-30 18:55 | 1.69597 | 36.73983 | 40677 ft | 298 kts | 16° |
| 2026-04-30 18:55 | 1.73557 | 36.75149 | 40710 ft | 298 kts | 16° |
| 2026-04-30 18:55 | 1.75547 | 36.75735 | 40727 ft | 299 kts | 16° |
| 2026-04-30 18:56 | 1.79526 | 36.76906 | 40758 ft | 299 kts | 16° |
| 2026-04-30 18:56 | 1.81517 | 36.77493 | 40773 ft | 299 kts | 16° |
| 2026-04-30 18:56 | 1.83475 | 36.78069 | 40779 ft | 299 kts | 16° |
| 2026-04-30 18:57 | 1.87486 | 36.79250 | 40780 ft | 300 kts | 16° |
| 2026-04-30 18:57 | 1.91498 | 36.80431 | 40780 ft | 302 kts | 16° |
| 2026-04-30 18:58 | 1.97545 | 36.82212 | 40780 ft | 303 kts | 16° |
| 2026-04-30 18:59 | 2.03625 | 36.84002 | 40780 ft | 305 kts | 16° |
| 2026-04-30 19:00 | 2.09691 | 36.85789 | 40966 ft | 299 kts | 16° |
| 2026-04-30 19:00 | 2.11698 | 36.86380 | 40994 ft | 299 kts | 16° |
| 2026-04-30 19:00 | 2.15689 | 36.87556 | 41000 ft | 300 kts | 16° |
| 2026-04-30 19:01 | 2.19665 | 36.88727 | 41000 ft | 301 kts | 16° |
| 2026-04-30 19:02 | 2.25706 | 36.90506 | 41000 ft | 302 kts | 16° |
| 2026-04-30 19:03 | 2.33754 | 36.92877 | 41000 ft | 304 kts | 16° |
| 2026-04-30 19:04 | 2.41855 | 36.95264 | 41000 ft | 305 kts | 16° |
| 2026-04-30 19:05 | 2.49987 | 36.97660 | 41000 ft | 307 kts | 16° |
| 2026-04-30 19:06 | 2.58171 | 37.00073 | 41000 ft | 308 kts | 16° |
| 2026-04-30 19:06 | 2.64310 | 37.01882 | 41000 ft | 308 kts | 16° |
| 2026-04-30 19:07 | 2.70449 | 37.03692 | 41000 ft | 309 kts | 16° |
| 2026-04-30 19:08 | 2.78703 | 37.06125 | 41000 ft | 310 kts | 16° |
| 2026-04-30 19:09 | 2.84880 | 37.07946 | 41000 ft | 310 kts | 16° |
| 2026-04-30 19:09 | 2.88994 | 37.09159 | 41000 ft | 311 kts | 16° |
| 2026-04-30 19:10 | 2.97274 | 37.11602 | 41000 ft | 311 kts | 16° |
| 2026-04-30 19:11 | 3.03492 | 37.13436 | 41000 ft | 312 kts | 16° |
| 2026-04-30 19:12 | 3.07638 | 37.14658 | 41000 ft | 312 kts | 16° |
| 2026-04-30 19:12 | 3.11785 | 37.15882 | 41000 ft | 312 kts | 16° |
| 2026-04-30 19:13 | 3.20106 | 37.18337 | 41000 ft | 313 kts | 16° |
| 2026-04-30 19:14 | 3.24247 | 37.19559 | 41000 ft | 313 kts | 16° |
| 2026-04-30 19:14 | 3.28420 | 37.20790 | 41000 ft | 313 kts | 16° |
| 2026-04-30 19:15 | 3.32562 | 37.22013 | 41000 ft | 313 kts | 16° |
| 2026-04-30 19:15 | 3.38828 | 37.23862 | 41000 ft | 313 kts | 16° |
| 2026-04-30 19:16 | 3.42980 | 37.25088 | 41000 ft | 313 kts | 16° |
| 2026-04-30 19:17 | 3.49247 | 37.26938 | 41000 ft | 314 kts | 16° |
| 2026-04-30 19:17 | 3.55507 | 37.28787 | 41000 ft | 314 kts | 16° |
| 2026-04-30 19:18 | 3.61780 | 37.30639 | 41000 ft | 314 kts | 16° |
| 2026-04-30 19:19 | 3.65940 | 37.31868 | 41000 ft | 314 kts | 16° |
| 2026-04-30 19:19 | 3.72206 | 37.33719 | 41000 ft | 314 kts | 16° |
| 2026-04-30 19:20 | 3.76408 | 37.34960 | 41000 ft | 315 kts | 16° |
| 2026-04-30 19:21 | 3.82665 | 37.36809 | 41000 ft | 315 kts | 16° |
| 2026-04-30 19:22 | 3.91061 | 37.39290 | 41000 ft | 315 kts | 16° |
| 2026-04-30 19:23 | 4.03640 | 37.42908 | 41000 ft | 315 kts | 15° |
| 2026-04-30 19:24 | 4.09982 | 37.44624 | 41000 ft | 316 kts | 15° |
| 2026-04-30 19:25 | 4.20588 | 37.47493 | 41000 ft | 316 kts | 15° |
| 2026-04-30 19:26 | 4.29042 | 37.49781 | 41000 ft | 316 kts | 15° |
| 2026-04-30 19:27 | 4.35377 | 37.51496 | 41000 ft | 316 kts | 15° |
| 2026-04-30 19:28 | 4.41730 | 37.53216 | 41000 ft | 316 kts | 15° |
| 2026-04-30 19:29 | 4.50205 | 37.55512 | 41000 ft | 316 kts | 15° |
| 2026-04-30 19:30 | 4.58665 | 37.57803 | 41000 ft | 317 kts | 15° |
| 2026-04-30 19:31 | 4.67157 | 37.60104 | 41000 ft | 317 kts | 15° |
| 2026-04-30 19:31 | 4.73502 | 37.61823 | 41000 ft | 317 kts | 15° |
| 2026-04-30 19:32 | 4.77771 | 37.62980 | 41000 ft | 317 kts | 15° |
| 2026-04-30 19:32 | 4.82017 | 37.64131 | 41000 ft | 317 kts | 15° |
| 2026-04-30 19:33 | 4.86244 | 37.65277 | 41000 ft | 317 kts | 15° |
| 2026-04-30 19:33 | 4.90500 | 37.66431 | 41000 ft | 317 kts | 15° |
| 2026-04-30 19:34 | 4.94749 | 37.67583 | 41000 ft | 317 kts | 15° |
| 2026-04-30 19:35 | 5.01129 | 37.69313 | 41000 ft | 318 kts | 15° |
| 2026-04-30 19:35 | 5.05387 | 37.70468 | 41000 ft | 318 kts | 15° |
| 2026-04-30 19:36 | 5.09635 | 37.71621 | 41000 ft | 318 kts | 15° |
| 2026-04-30 19:36 | 5.16030 | 37.73356 | 41000 ft | 318 kts | 15° |
| 2026-04-30 19:37 | 5.20295 | 37.74514 | 41000 ft | 318 kts | 15° |
| 2026-04-30 19:37 | 5.24537 | 37.75665 | 41000 ft | 318 kts | 15° |
| 2026-04-30 19:38 | 5.28793 | 37.76820 | 41000 ft | 318 kts | 15° |
| 2026-04-30 19:38 | 5.33059 | 37.77978 | 41000 ft | 318 kts | 15° |
| 2026-04-30 19:39 | 5.37324 | 37.79137 | 41000 ft | 318 kts | 15° |
| 2026-04-30 19:39 | 5.41575 | 37.80291 | 41000 ft | 318 kts | 15° |
| 2026-04-30 19:40 | 5.45851 | 37.81453 | 41000 ft | 319 kts | 15° |
| 2026-04-30 19:40 | 5.50096 | 37.82606 | 41000 ft | 319 kts | 15° |
| 2026-04-30 19:41 | 5.54369 | 37.83767 | 41000 ft | 319 kts | 15° |
| 2026-04-30 19:41 | 5.58642 | 37.84928 | 41000 ft | 319 kts | 15° |
| 2026-04-30 19:42 | 5.62913 | 37.86089 | 40999 ft | 319 kts | 15° |
| 2026-04-30 19:42 | 5.67180 | 37.87249 | 41000 ft | 319 kts | 15° |
| 2026-04-30 19:43 | 5.71443 | 37.88408 | 41000 ft | 319 kts | 15° |
| 2026-04-30 19:44 | 5.77838 | 37.90147 | 41000 ft | 319 kts | 15° |
| 2026-04-30 19:44 | 5.82121 | 37.91312 | 41000 ft | 319 kts | 15° |
| 2026-04-30 19:45 | 5.86389 | 37.92473 | 41000 ft | 319 kts | 15° |
| 2026-04-30 19:45 | 5.90670 | 37.93637 | 41000 ft | 319 kts | 15° |
| 2026-04-30 19:46 | 5.94935 | 37.94798 | 41000 ft | 320 kts | 15° |
| 2026-04-30 19:46 | 5.99216 | 37.95963 | 41000 ft | 320 kts | 15° |
| 2026-04-30 19:47 | 6.03508 | 37.97131 | 41000 ft | 320 kts | 15° |
| 2026-04-30 19:47 | 6.07773 | 37.98292 | 41000 ft | 320 kts | 15° |
| 2026-04-30 19:48 | 6.12067 | 37.99461 | 41000 ft | 320 kts | 15° |
| 2026-04-30 19:48 | 6.16333 | 38.00623 | 41000 ft | 320 kts | 15° |
| 2026-04-30 19:49 | 6.20632 | 38.01794 | 41000 ft | 320 kts | 15° |
| 2026-04-30 19:49 | 6.27043 | 38.03540 | 41000 ft | 320 kts | 15° |
| 2026-04-30 19:50 | 6.31330 | 38.04709 | 41000 ft | 320 kts | 15° |
| 2026-04-30 19:50 | 6.35620 | 38.05878 | 40999 ft | 320 kts | 15° |
| 2026-04-30 19:51 | 6.39899 | 38.07044 | 41000 ft | 320 kts | 15° |
| 2026-04-30 19:51 | 6.44207 | 38.08219 | 41000 ft | 321 kts | 15° |
| 2026-04-30 19:52 | 6.48516 | 38.09394 | 41000 ft | 321 kts | 15° |
| 2026-04-30 19:52 | 6.52830 | 38.10570 | 41000 ft | 321 kts | 15° |
| 2026-04-30 19:53 | 6.57121 | 38.11732 | 41000 ft | 321 kts | 15° |
| 2026-04-30 19:53 | 6.61437 | 38.12901 | 41000 ft | 321 kts | 15° |
| 2026-04-30 19:54 | 6.65761 | 38.14072 | 41000 ft | 321 kts | 15° |
| 2026-04-30 19:54 | 6.70083 | 38.15243 | 41000 ft | 321 kts | 15° |
| 2026-04-30 19:55 | 6.74407 | 38.16415 | 41000 ft | 321 kts | 15° |
| 2026-04-30 19:55 | 6.78722 | 38.17584 | 41000 ft | 321 kts | 15° |
| 2026-04-30 19:56 | 6.83047 | 38.18756 | 41000 ft | 321 kts | 15° |
| 2026-04-30 19:56 | 6.87388 | 38.19933 | 41000 ft | 321 kts | 15° |
| 2026-04-30 19:57 | 6.91716 | 38.21106 | 41000 ft | 321 kts | 15° |
| 2026-04-30 19:57 | 6.96009 | 38.22270 | 41000 ft | 322 kts | 15° |
| 2026-04-30 19:58 | 6.99794 | 38.23297 | 41000 ft | 322 kts | 15° |
| 2026-04-30 19:58 | 7.04443 | 38.24558 | 40999 ft | 322 kts | 15° |
| 2026-04-30 19:59 | 7.08747 | 38.25726 | 41000 ft | 322 kts | 15° |
| 2026-04-30 20:00 | 7.15231 | 38.27486 | 41000 ft | 322 kts | 15° |
| 2026-04-30 20:00 | 7.19574 | 38.28664 | 41000 ft | 322 kts | 15° |
| 2026-04-30 20:01 | 7.26057 | 38.30425 | 41000 ft | 322 kts | 15° |
| 2026-04-30 20:01 | 7.30374 | 38.31597 | 41000 ft | 322 kts | 15° |
| 2026-04-30 20:02 | 7.36885 | 38.33366 | 41000 ft | 322 kts | 15° |
| 2026-04-30 20:03 | 7.43398 | 38.35136 | 41000 ft | 322 kts | 15° |
| 2026-04-30 20:03 | 7.47741 | 38.36312 | 40999 ft | 323 kts | 14° |
| 2026-04-30 20:04 | 7.52075 | 38.37401 | 41000 ft | 323 kts | 14° |
| 2026-04-30 20:05 | 7.58590 | 38.39021 | 41000 ft | 323 kts | 14° |
| 2026-04-30 20:05 | 7.65161 | 38.40654 | 41000 ft | 323 kts | 14° |
| 2026-04-30 20:06 | 7.69524 | 38.41739 | 41000 ft | 323 kts | 14° |
| 2026-04-30 20:06 | 7.73906 | 38.42828 | 41000 ft | 323 kts | 14° |
| 2026-04-30 20:07 | 7.78275 | 38.43915 | 41000 ft | 323 kts | 14° |
| 2026-04-30 20:08 | 7.84834 | 38.45547 | 41000 ft | 323 kts | 14° |
| 2026-04-30 20:08 | 7.89190 | 38.46630 | 40999 ft | 323 kts | 14° |
| 2026-04-30 20:09 | 7.93553 | 38.47716 | 41000 ft | 323 kts | 14° |
| 2026-04-30 20:09 | 8.00150 | 38.49359 | 41000 ft | 323 kts | 14° |
| 2026-04-30 20:10 | 8.06684 | 38.50986 | 41000 ft | 324 kts | 14° |
| 2026-04-30 20:11 | 8.13246 | 38.52622 | 41000 ft | 324 kts | 14° |
| 2026-04-30 20:11 | 8.17628 | 38.53713 | 41000 ft | 324 kts | 14° |
| 2026-04-30 20:12 | 8.24223 | 38.55360 | 41000 ft | 324 kts | 14° |
| 2026-04-30 20:13 | 8.28586 | 38.56450 | 41000 ft | 324 kts | 14° |
| 2026-04-30 20:13 | 8.32967 | 38.57545 | 41000 ft | 324 kts | 14° |
| 2026-04-30 20:14 | 8.37357 | 38.58642 | 41000 ft | 324 kts | 14° |
| 2026-04-30 20:14 | 8.41716 | 38.59732 | 41000 ft | 324 kts | 14° |
| 2026-04-30 20:15 | 8.46102 | 38.60828 | 41000 ft | 324 kts | 14° |
| 2026-04-30 20:15 | 8.50527 | 38.61935 | 41000 ft | 324 kts | 14° |
| 2026-04-30 20:16 | 8.54907 | 38.63031 | 41000 ft | 324 kts | 14° |
| 2026-04-30 20:16 | 8.59303 | 38.64131 | 41000 ft | 324 kts | 14° |
| 2026-04-30 20:17 | 8.63674 | 38.65225 | 41000 ft | 325 kts | 14° |
| 2026-04-30 20:17 | 8.68075 | 38.66327 | 41000 ft | 325 kts | 14° |
| 2026-04-30 20:18 | 8.72362 | 38.67401 | 41000 ft | 325 kts | 14° |
| 2026-04-30 20:18 | 8.76821 | 38.68517 | 41000 ft | 325 kts | 14° |
| 2026-04-30 20:19 | 8.81233 | 38.69623 | 41000 ft | 325 kts | 14° |
| 2026-04-30 20:19 | 8.85649 | 38.70729 | 41000 ft | 325 kts | 14° |
| 2026-04-30 20:20 | 8.90046 | 38.71831 | 41000 ft | 325 kts | 14° |
| 2026-04-30 20:20 | 8.94439 | 38.72933 | 41000 ft | 325 kts | 14° |
| 2026-04-30 20:21 | 8.98852 | 38.74039 | 41000 ft | 325 kts | 14° |
| 2026-04-30 20:21 | 9.03274 | 38.75149 | 41000 ft | 325 kts | 14° |
| 2026-04-30 20:22 | 9.07661 | 38.76250 | 41000 ft | 325 kts | 14° |
| 2026-04-30 20:22 | 9.12129 | 38.77005 | 41001 ft | 325 kts | 3° |
| 2026-04-30 20:23 | 9.16632 | 38.77154 | 41000 ft | 325 kts | 1° |
| 2026-04-30 20:23 | 9.21190 | 38.77279 | 41000 ft | 325 kts | 1° |
| 2026-04-30 20:24 | 9.25728 | 38.77402 | 41000 ft | 325 kts | 1° |
| 2026-04-30 20:24 | 9.30283 | 38.77526 | 41000 ft | 326 kts | 1° |
| 2026-04-30 20:25 | 9.37035 | 38.77709 | 41000 ft | 326 kts | 1° |
| 2026-04-30 20:26 | 9.43860 | 38.77895 | 41001 ft | 331 kts | 1° |
| 2026-04-30 20:26 | 9.50859 | 38.78085 | 41000 ft | 341 kts | 1° |
| 2026-04-30 20:27 | 9.60381 | 38.78344 | 41000 ft | 343 kts | 1° |
| 2026-04-30 20:28 | 9.70038 | 38.78606 | 41000 ft | 345 kts | 1° |
| 2026-04-30 20:30 | 9.82010 | 38.78933 | 41000 ft | 346 kts | 1° |
| 2026-04-30 20:31 | 9.96285 | 38.79321 | 41000 ft | 347 kts | 1° |
| 2026-04-30 20:32 | 10.08428 | 38.79652 | 41000 ft | 348 kts | 1° |
| 2026-04-30 20:33 | 10.15694 | 38.79851 | 41000 ft | 348 kts | 1° |
| 2026-04-30 20:34 | 10.23019 | 38.80051 | 41000 ft | 349 kts | 1° |
| 2026-04-30 20:35 | 10.30392 | 38.80252 | 41000 ft | 349 kts | 1° |
| 2026-04-30 20:35 | 10.37671 | 38.80451 | 41000 ft | 349 kts | 1° |
| 2026-04-30 20:36 | 10.42531 | 38.80584 | 41000 ft | 349 kts | 1° |
| 2026-04-30 20:37 | 10.49837 | 38.80783 | 40999 ft | 349 kts | 1° |
| 2026-04-30 20:37 | 10.54720 | 38.80917 | 41000 ft | 349 kts | 1° |
| 2026-04-30 20:37 | 10.57156 | 38.80984 | 40853 ft | 354 kts | 1° |
| 2026-04-30 20:38 | 10.59610 | 38.81051 | 40605 ft | 361 kts | 1° |
| 2026-04-30 20:38 | 10.62173 | 38.81121 | 40356 ft | 368 kts | 1° |
| 2026-04-30 20:38 | 10.64722 | 38.81191 | 40111 ft | 374 kts | 1° |
| 2026-04-30 20:39 | 10.70014 | 38.81335 | 39613 ft | 384 kts | 1° |
| 2026-04-30 20:39 | 10.72684 | 38.81409 | 39366 ft | 388 kts | 1° |
| 2026-04-30 20:39 | 10.75435 | 38.81484 | 39114 ft | 392 kts | 1° |
| 2026-04-30 20:40 | 10.80894 | 38.81634 | 39000 ft | 389 kts | 1° |
| 2026-04-30 20:40 | 10.86290 | 38.81782 | 38999 ft | 383 kts | 1° |
| 2026-04-30 20:41 | 10.94249 | 38.82000 | 38999 ft | 378 kts | 1° |
| 2026-04-30 20:41 | 10.99506 | 38.82144 | 38999 ft | 375 kts | 1° |
| 2026-04-30 20:42 | 11.04748 | 38.82289 | 38999 ft | 373 kts | 1° |
| 2026-04-30 20:43 | 11.12564 | 38.82503 | 38999 ft | 370 kts | 1° |
| 2026-04-30 20:43 | 11.17704 | 38.82645 | 38999 ft | 369 kts | 1° |
| 2026-04-30 20:44 | 11.25361 | 38.82856 | 38999 ft | 368 kts | 1° |
| 2026-04-30 20:45 | 11.35574 | 38.83136 | 38999 ft | 367 kts | 1° |
| 2026-04-30 20:45 | 11.40526 | 38.83273 | 38999 ft | 366 kts | 1° |
| 2026-04-30 20:46 | 11.50607 | 38.83550 | 38999 ft | 366 kts | 1° |
| 2026-04-30 20:47 | 11.57994 | 38.83754 | 39000 ft | 365 kts | 1° |
| 2026-04-30 20:48 | 11.65607 | 38.83963 | 39000 ft | 365 kts | 1° |
| 2026-04-30 20:48 | 11.70687 | 38.84103 | 38999 ft | 365 kts | 1° |
| 2026-04-30 20:49 | 11.75768 | 38.84243 | 39000 ft | 365 kts | 1° |
| 2026-04-30 20:50 | 11.83358 | 38.84452 | 39000 ft | 365 kts | 1° |
| 2026-04-30 20:50 | 11.88411 | 38.84592 | 38999 ft | 365 kts | 1° |
| 2026-04-30 20:51 | 11.93471 | 38.84732 | 38999 ft | 365 kts | 1° |
| 2026-04-30 20:51 | 12.01054 | 38.84941 | 39000 ft | 365 kts | 1° |
| 2026-04-30 20:52 | 12.06134 | 38.85081 | 39000 ft | 365 kts | 1° |
| 2026-04-30 20:53 | 12.13623 | 38.85288 | 39000 ft | 365 kts | 1° |
| 2026-04-30 20:53 | 12.18691 | 38.85429 | 38999 ft | 365 kts | 1° |
| 2026-04-30 20:54 | 12.26295 | 38.85639 | 39000 ft | 365 kts | 1° |
| 2026-04-30 20:55 | 12.33860 | 38.85849 | 39000 ft | 365 kts | 1° |
| 2026-04-30 20:55 | 12.38943 | 38.85991 | 38999 ft | 365 kts | 1° |
| 2026-04-30 20:56 | 12.46600 | 38.86205 | 39000 ft | 365 kts | 1° |
| 2026-04-30 20:57 | 12.54197 | 38.86418 | 39000 ft | 365 kts | 1° |
| 2026-04-30 20:57 | 12.59265 | 38.86560 | 39000 ft | 365 kts | 1° |
| 2026-04-30 20:58 | 12.66899 | 38.86773 | 39000 ft | 365 kts | 1° |
| 2026-04-30 20:58 | 12.71951 | 38.86915 | 39000 ft | 365 kts | 1° |
| 2026-04-30 20:59 | 12.79572 | 38.87128 | 38999 ft | 365 kts | 1° |
| 2026-04-30 21:00 | 12.89757 | 38.87414 | 39000 ft | 366 kts | 1° |
| 2026-04-30 21:01 | 12.97344 | 38.87581 | 39000 ft | 366 kts | 1° |
| 2026-04-30 21:02 | 13.04984 | 38.87718 | 38999 ft | 366 kts | 1° |
| 2026-04-30 21:02 | 13.10062 | 38.87809 | 38999 ft | 366 kts | 1° |
| 2026-04-30 21:03 | 13.15110 | 38.87900 | 39000 ft | 366 kts | 1° |
| 2026-04-30 21:03 | 13.20198 | 38.87991 | 39000 ft | 366 kts | 1° |
| 2026-04-30 21:04 | 13.25287 | 38.88083 | 38999 ft | 366 kts | 1° |
| 2026-04-30 21:04 | 13.32890 | 38.88220 | 39000 ft | 366 kts | 1° |
| 2026-04-30 21:05 | 13.37959 | 38.88310 | 39000 ft | 366 kts | 1° |
| 2026-04-30 21:05 | 13.43038 | 38.88402 | 38999 ft | 366 kts | 1° |
| 2026-04-30 21:06 | 13.48118 | 38.88493 | 38999 ft | 366 kts | 1° |
| 2026-04-30 21:06 | 13.53224 | 38.88585 | 39000 ft | 366 kts | 1° |
| 2026-04-30 21:07 | 13.58287 | 38.88676 | 39000 ft | 366 kts | 1° |
| 2026-04-30 21:07 | 13.63359 | 38.88768 | 39000 ft | 366 kts | 1° |
| 2026-04-30 21:08 | 13.68434 | 38.88859 | 39000 ft | 366 kts | 1° |
| 2026-04-30 21:08 | 13.73527 | 38.88951 | 39000 ft | 366 kts | 1° |
| 2026-04-30 21:09 | 13.78616 | 38.89043 | 39000 ft | 366 kts | 1° |
| 2026-04-30 21:09 | 13.83683 | 38.89134 | 39000 ft | 366 kts | 1° |
| 2026-04-30 21:10 | 13.88761 | 38.89226 | 39000 ft | 366 kts | 1° |
| 2026-04-30 21:10 | 13.93830 | 38.89317 | 39000 ft | 366 kts | 1° |
| 2026-04-30 21:11 | 13.98895 | 38.89409 | 39000 ft | 366 kts | 1° |
| 2026-04-30 21:11 | 14.03990 | 38.89497 | 39000 ft | 366 kts | 1° |
| 2026-04-30 21:12 | 14.09094 | 38.89556 | 39000 ft | 366 kts | 0° |
| 2026-04-30 21:12 | 14.14186 | 38.89611 | 39000 ft | 366 kts | 0° |
| 2026-04-30 21:13 | 14.19267 | 38.89666 | 39000 ft | 366 kts | 0° |
| 2026-04-30 21:13 | 14.24355 | 38.89722 | 39000 ft | 366 kts | 0° |
| 2026-04-30 21:14 | 14.29445 | 38.89777 | 39000 ft | 367 kts | 0° |
| 2026-04-30 21:14 | 14.34552 | 38.89833 | 39000 ft | 367 kts | 0° |
| 2026-04-30 21:15 | 14.39626 | 38.89888 | 39000 ft | 367 kts | 0° |
| 2026-04-30 21:15 | 14.44721 | 38.89943 | 39000 ft | 367 kts | 0° |
| 2026-04-30 21:16 | 14.49816 | 38.89995 | 38999 ft | 367 kts | 0° |
| 2026-04-30 21:16 | 14.54913 | 38.90006 | 39000 ft | 367 kts | 0° |
| 2026-04-30 21:17 | 14.60013 | 38.90011 | 39000 ft | 367 kts | 0° |
| 2026-04-30 21:17 | 14.65142 | 38.90016 | 39000 ft | 367 kts | 0° |
| 2026-04-30 21:18 | 14.70224 | 38.90022 | 38999 ft | 367 kts | 0° |
| 2026-04-30 21:18 | 14.75335 | 38.90027 | 39000 ft | 367 kts | 0° |
| 2026-04-30 21:19 | 14.80445 | 38.90032 | 39000 ft | 367 kts | 0° |
| 2026-04-30 21:19 | 14.85519 | 38.90037 | 39000 ft | 367 kts | 0° |
| 2026-04-30 21:20 | 14.90645 | 38.90042 | 39000 ft | 367 kts | 0° |
| 2026-04-30 21:20 | 14.95761 | 38.90048 | 39000 ft | 367 kts | 0° |
| 2026-04-30 21:21 | 15.00839 | 38.90053 | 39000 ft | 367 kts | 0° |
| 2026-04-30 21:22 | 15.08478 | 38.90061 | 39000 ft | 367 kts | 0° |
| 2026-04-30 21:23 | 15.18679 | 38.90071 | 39000 ft | 367 kts | 0° |
| 2026-04-30 21:23 | 15.26332 | 38.90078 | 38999 ft | 367 kts | 359° |
| 2026-04-30 21:24 | 15.31316 | 38.89128 | 39000 ft | 367 kts | 339° |
| 2026-04-30 21:24 | 15.36041 | 38.87115 | 39000 ft | 367 kts | 339° |
| 2026-04-30 21:25 | 15.43153 | 38.84286 | 39000 ft | 367 kts | 339° |
| 2026-04-30 21:26 | 15.50296 | 38.81467 | 39000 ft | 367 kts | 339° |
| 2026-04-30 21:27 | 15.57459 | 38.78639 | 39000 ft | 367 kts | 339° |
| 2026-04-30 21:27 | 15.62210 | 38.76762 | 39000 ft | 367 kts | 339° |
| 2026-04-30 21:28 | 15.69401 | 38.73920 | 39000 ft | 367 kts | 339° |
| 2026-04-30 21:29 | 15.76573 | 38.71083 | 39000 ft | 368 kts | 339° |
| 2026-04-30 21:30 | 15.88505 | 38.66357 | 39000 ft | 368 kts | 339° |
| 2026-04-30 21:31 | 16.00442 | 38.61624 | 38999 ft | 368 kts | 339° |
| 2026-04-30 21:32 | 16.07572 | 38.58794 | 39000 ft | 368 kts | 339° |
| 2026-04-30 21:32 | 16.12362 | 38.56892 | 39000 ft | 368 kts | 339° |
| 2026-04-30 21:33 | 16.19532 | 38.54042 | 39000 ft | 368 kts | 339° |
| 2026-04-30 21:34 | 16.24283 | 38.52153 | 39000 ft | 368 kts | 339° |
| 2026-04-30 21:34 | 16.31471 | 38.49293 | 39000 ft | 368 kts | 339° |
| 2026-04-30 21:35 | 16.36225 | 38.47400 | 39000 ft | 368 kts | 339° |
| 2026-04-30 21:35 | 16.41022 | 38.45488 | 39000 ft | 368 kts | 339° |
| 2026-04-30 21:36 | 16.45788 | 38.43588 | 38999 ft | 368 kts | 339° |
| 2026-04-30 21:37 | 16.55352 | 38.39773 | 39000 ft | 368 kts | 339° |
| 2026-04-30 21:37 | 16.60120 | 38.37869 | 39000 ft | 368 kts | 339° |
| 2026-04-30 21:38 | 16.64902 | 38.35959 | 39000 ft | 368 kts | 339° |
| 2026-04-30 21:38 | 16.69666 | 38.34055 | 39000 ft | 368 kts | 339° |
| 2026-04-30 21:39 | 16.74435 | 38.32148 | 39000 ft | 368 kts | 339° |
| 2026-04-30 21:39 | 16.79207 | 38.30238 | 39000 ft | 368 kts | 339° |
| 2026-04-30 21:40 | 16.83965 | 38.28334 | 38999 ft | 368 kts | 339° |
| 2026-04-30 21:40 | 16.88753 | 38.26416 | 39000 ft | 368 kts | 339° |
| 2026-04-30 21:41 | 16.93516 | 38.24507 | 39000 ft | 368 kts | 339° |
| 2026-04-30 21:41 | 16.98301 | 38.22588 | 39000 ft | 368 kts | 339° |
| 2026-04-30 21:42 | 17.03072 | 38.20674 | 39000 ft | 368 kts | 339° |
| 2026-04-30 21:42 | 17.07833 | 38.18763 | 39000 ft | 368 kts | 339° |
| 2026-04-30 21:43 | 17.12609 | 38.16845 | 39000 ft | 369 kts | 339° |
| 2026-04-30 21:43 | 17.17381 | 38.14927 | 39000 ft | 369 kts | 339° |
| 2026-04-30 21:44 | 17.22144 | 38.13012 | 39000 ft | 369 kts | 339° |
| 2026-04-30 21:44 | 17.26923 | 38.11089 | 39000 ft | 369 kts | 339° |
| 2026-04-30 21:45 | 17.31694 | 38.09169 | 39000 ft | 369 kts | 339° |
| 2026-04-30 21:45 | 17.36455 | 38.07251 | 39000 ft | 369 kts | 339° |
| 2026-04-30 21:46 | 17.41243 | 38.05322 | 39000 ft | 369 kts | 339° |
| 2026-04-30 21:46 | 17.46024 | 38.03394 | 39000 ft | 369 kts | 339° |
| 2026-04-30 21:47 | 17.50768 | 38.01480 | 39000 ft | 369 kts | 339° |
| 2026-04-30 21:47 | 17.55563 | 37.99544 | 39000 ft | 369 kts | 339° |
| 2026-04-30 21:48 | 17.60332 | 37.97619 | 39000 ft | 369 kts | 339° |
| 2026-04-30 21:48 | 17.65122 | 37.95683 | 39000 ft | 369 kts | 339° |
| 2026-04-30 21:49 | 17.69880 | 37.93759 | 39000 ft | 369 kts | 339° |
| 2026-04-30 21:49 | 17.74648 | 37.91829 | 39000 ft | 369 kts | 339° |
| 2026-04-30 21:50 | 17.79437 | 37.89891 | 39000 ft | 369 kts | 339° |
| 2026-04-30 21:50 | 17.84215 | 37.87956 | 39000 ft | 369 kts | 339° |
| 2026-04-30 21:51 | 17.88972 | 37.86028 | 39000 ft | 369 kts | 339° |
| 2026-04-30 21:51 | 17.93745 | 37.84092 | 39000 ft | 369 kts | 339° |
| 2026-04-30 21:52 | 17.98523 | 37.82153 | 39000 ft | 369 kts | 339° |
| 2026-04-30 21:52 | 18.03286 | 37.80220 | 39000 ft | 369 kts | 339° |
| 2026-04-30 21:53 | 18.08080 | 37.78272 | 39000 ft | 369 kts | 339° |
| 2026-04-30 21:53 | 18.12837 | 37.76338 | 39000 ft | 369 kts | 339° |
| 2026-04-30 21:54 | 18.17628 | 37.74390 | 39000 ft | 369 kts | 339° |
| 2026-04-30 21:54 | 18.22402 | 37.72448 | 39000 ft | 369 kts | 339° |
| 2026-04-30 21:55 | 18.27174 | 37.70504 | 39000 ft | 369 kts | 339° |
| 2026-04-30 21:55 | 18.31971 | 37.68550 | 39000 ft | 369 kts | 339° |
| 2026-04-30 21:56 | 18.36736 | 37.66607 | 39000 ft | 369 kts | 339° |
| 2026-04-30 21:56 | 18.41495 | 37.64666 | 39000 ft | 369 kts | 339° |
| 2026-04-30 21:57 | 18.46284 | 37.62711 | 39000 ft | 369 kts | 339° |
| 2026-04-30 21:57 | 18.51063 | 37.60760 | 39000 ft | 369 kts | 339° |
| 2026-04-30 21:58 | 18.55864 | 37.58798 | 39000 ft | 369 kts | 339° |
| 2026-04-30 21:58 | 18.60640 | 37.56846 | 38999 ft | 370 kts | 339° |
| 2026-04-30 21:59 | 18.65415 | 37.54892 | 39000 ft | 370 kts | 339° |
| 2026-04-30 22:00 | 18.72582 | 37.51957 | 39000 ft | 370 kts | 339° |
| 2026-04-30 22:00 | 18.79750 | 37.49020 | 39000 ft | 370 kts | 339° |
| 2026-04-30 22:01 | 18.84520 | 37.47063 | 39000 ft | 370 kts | 339° |
| 2026-04-30 22:01 | 18.89310 | 37.45097 | 39000 ft | 370 kts | 339° |
| 2026-04-30 22:02 | 18.94069 | 37.43144 | 39000 ft | 370 kts | 339° |
| 2026-04-30 22:02 | 18.98861 | 37.41174 | 39000 ft | 370 kts | 339° |
| 2026-04-30 22:03 | 19.03645 | 37.39207 | 39000 ft | 370 kts | 339° |
| 2026-04-30 22:03 | 19.08403 | 37.37250 | 39000 ft | 370 kts | 339° |
| 2026-04-30 22:04 | 19.13201 | 37.35275 | 39000 ft | 370 kts | 339° |
| 2026-04-30 22:05 | 19.20391 | 37.32313 | 39000 ft | 370 kts | 339° |
| 2026-04-30 22:05 | 19.25160 | 37.30347 | 39000 ft | 370 kts | 339° |
| 2026-04-30 22:06 | 19.29945 | 37.28373 | 39000 ft | 370 kts | 339° |
| 2026-04-30 22:06 | 19.37120 | 37.25411 | 39000 ft | 370 kts | 339° |
| 2026-04-30 22:07 | 19.41722 | 37.23061 | 39000 ft | 370 kts | 328° |
| 2026-04-30 22:07 | 19.46058 | 37.20158 | 39000 ft | 370 kts | 327° |
| 2026-04-30 22:08 | 19.50389 | 37.17228 | 39000 ft | 370 kts | 327° |
| 2026-04-30 22:08 | 19.54728 | 37.14291 | 39000 ft | 370 kts | 327° |
| 2026-04-30 22:09 | 19.59054 | 37.11362 | 39000 ft | 370 kts | 327° |
| 2026-04-30 22:09 | 19.63387 | 37.08425 | 39000 ft | 370 kts | 327° |
| 2026-04-30 22:10 | 19.67711 | 37.05493 | 39000 ft | 370 kts | 327° |
| 2026-04-30 22:10 | 19.72038 | 37.02557 | 39000 ft | 370 kts | 327° |
| 2026-04-30 22:11 | 19.78527 | 36.98151 | 39000 ft | 370 kts | 327° |
| 2026-04-30 22:12 | 19.82859 | 36.95206 | 39000 ft | 370 kts | 327° |
| 2026-04-30 22:12 | 19.87170 | 36.92275 | 39000 ft | 370 kts | 327° |
| 2026-04-30 22:13 | 19.91514 | 36.89319 | 39000 ft | 370 kts | 327° |
| 2026-04-30 22:13 | 19.95842 | 36.86372 | 39000 ft | 370 kts | 327° |
| 2026-04-30 22:14 | 20.00177 | 36.83418 | 39000 ft | 370 kts | 327° |
| 2026-04-30 22:14 | 20.04500 | 36.80470 | 38999 ft | 370 kts | 327° |
| 2026-04-30 22:15 | 20.08812 | 36.77528 | 39000 ft | 371 kts | 327° |
| 2026-04-30 22:15 | 20.13150 | 36.74566 | 39000 ft | 371 kts | 327° |
| 2026-04-30 22:16 | 20.17454 | 36.71625 | 39000 ft | 371 kts | 327° |
| 2026-04-30 22:17 | 20.26114 | 36.65702 | 39000 ft | 371 kts | 327° |
| 2026-04-30 22:17 | 20.32614 | 36.61252 | 39000 ft | 371 kts | 327° |
| 2026-04-30 22:18 | 20.39090 | 36.56813 | 39000 ft | 371 kts | 327° |
| 2026-04-30 22:19 | 20.45562 | 36.52373 | 39000 ft | 371 kts | 327° |
| 2026-04-30 22:20 | 20.52067 | 36.47905 | 39000 ft | 371 kts | 327° |
| 2026-04-30 22:20 | 20.58567 | 36.43436 | 39000 ft | 371 kts | 327° |
| 2026-04-30 22:21 | 20.62905 | 36.40451 | 39000 ft | 371 kts | 327° |
| 2026-04-30 22:21 | 20.67220 | 36.37480 | 39000 ft | 371 kts | 327° |
| 2026-04-30 22:22 | 20.71318 | 36.34656 | 38999 ft | 371 kts | 327° |
| 2026-04-30 22:22 | 20.75621 | 36.31689 | 39000 ft | 371 kts | 327° |
| 2026-04-30 22:23 | 20.79960 | 36.28695 | 39000 ft | 371 kts | 327° |
| 2026-04-30 22:23 | 20.84289 | 36.25705 | 39000 ft | 371 kts | 327° |
| 2026-04-30 22:24 | 20.88604 | 36.22723 | 39000 ft | 371 kts | 327° |
| 2026-04-30 22:24 | 20.92932 | 36.19730 | 39000 ft | 371 kts | 327° |
| 2026-04-30 22:25 | 20.97285 | 36.16717 | 39000 ft | 371 kts | 327° |
| 2026-04-30 22:25 | 21.01625 | 36.13712 | 39000 ft | 371 kts | 327° |
| 2026-04-30 22:26 | 21.08107 | 36.09219 | 39000 ft | 371 kts | 327° |
| 2026-04-30 22:27 | 21.12418 | 36.06227 | 39000 ft | 371 kts | 327° |
| 2026-04-30 22:27 | 21.18914 | 36.01717 | 39000 ft | 371 kts | 327° |
| 2026-04-30 22:28 | 21.25401 | 35.97207 | 39000 ft | 371 kts | 327° |
| 2026-04-30 22:29 | 21.34075 | 35.91171 | 39000 ft | 371 kts | 327° |
| 2026-04-30 22:31 | 21.49222 | 35.80608 | 39000 ft | 372 kts | 327° |
| 2026-04-30 22:32 | 21.60032 | 35.73053 | 39000 ft | 372 kts | 327° |
| 2026-04-30 22:33 | 21.70847 | 35.65481 | 39000 ft | 372 kts | 327° |
| 2026-04-30 22:35 | 21.81644 | 35.57908 | 38999 ft | 372 kts | 327° |
| 2026-04-30 22:36 | 21.92469 | 35.50301 | 39000 ft | 372 kts | 327° |
| 2026-04-30 22:37 | 22.01102 | 35.44237 | 39000 ft | 372 kts | 327° |
| 2026-04-30 22:38 | 22.09773 | 35.38209 | 39000 ft | 372 kts | 327° |
| 2026-04-30 22:39 | 22.16295 | 35.33672 | 39000 ft | 372 kts | 327° |
| 2026-04-30 22:40 | 22.29296 | 35.24609 | 39000 ft | 372 kts | 327° |
| 2026-04-30 22:41 | 22.40143 | 35.17033 | 39000 ft | 372 kts | 327° |
| 2026-04-30 22:43 | 22.53159 | 35.07924 | 39000 ft | 372 kts | 327° |
| 2026-04-30 22:44 | 22.61836 | 35.01839 | 39000 ft | 372 kts | 327° |
| 2026-04-30 22:45 | 22.74821 | 34.92716 | 39000 ft | 372 kts | 327° |
| 2026-04-30 22:47 | 22.87826 | 34.83558 | 38999 ft | 372 kts | 327° |
| 2026-04-30 22:48 | 22.96518 | 34.77425 | 39000 ft | 373 kts | 327° |
| 2026-04-30 22:49 | 23.09507 | 34.68243 | 39000 ft | 373 kts | 327° |
| 2026-04-30 22:51 | 23.22512 | 34.59028 | 39000 ft | 373 kts | 327° |
| 2026-04-30 22:52 | 23.29001 | 34.54422 | 39000 ft | 373 kts | 327° |
| 2026-04-30 22:53 | 23.37665 | 34.48264 | 39000 ft | 373 kts | 327° |
| 2026-04-30 22:53 | 23.44193 | 34.43617 | 39000 ft | 373 kts | 327° |
| 2026-04-30 22:55 | 23.55046 | 34.35879 | 39000 ft | 373 kts | 327° |
| 2026-04-30 22:56 | 23.63707 | 34.29693 | 38999 ft | 373 kts | 327° |
| 2026-04-30 22:57 | 23.74553 | 34.21933 | 39000 ft | 373 kts | 327° |
| 2026-04-30 22:58 | 23.83241 | 34.15716 | 39000 ft | 373 kts | 327° |
| 2026-04-30 22:59 | 23.96259 | 34.06447 | 39000 ft | 373 kts | 327° |